< < Back
Terminal Aerodrome Forecast


Current Version              Previous Versions:   1  2  3  4  5  6  7  8  9  

Terminal Aerodrome Forecast

474
FTUS44 KBMX 241700
TAFMGM
TAF
KMGM 241736Z 2418/2518 16006KT P6SM SCT040 SCT250
     FM250800 20005KT P6SM BKN015 BKN250
     FM251400 27010KT P6SM OVC015=

Latest METAR

964
SAUS80 KWBC 242200 RRA
MTRMGM
METAR KMGM 242153Z 17004KT 10SM CLR 29/15 A2988 RMK AO2 SLP117
T02940150


USA.gov is the U.S. government's official web portal to all federal, state and local government web resources and services.